Flight Track Log - Related Links

Times and Time Zones

All times are in EDT time to prevent confusion due to time zone crossing. See the QLK377D flight status page for this flight to view local times or setup timezone preferences in your user account.

Time Position Orientation Groundspeed Altitude Reporting Facility
EDT Latitude Longitude Course Direction KTS MPH feet Rate Location/Type
10:27PM -25.3927 152.8127 194° South 227 261 5,300  Level Aus ATC (RADAR)
10:27PM -25.4085 152.8083 194° South 227 261 5,800 2,135 Climbing Aus ATC (RADAR)
10:28PM -25.4891 152.7352 219° Southwest 246 283 9,000 2,087 Climbing Aus ATC (RADAR)
10:29PM -25.5128 152.7138 219° Southwest 255 293 9,800 1,800 Climbing Aus ATC (RADAR)
10:29PM -25.5542 152.7066 189° South 269 310 10,800 1,800 Climbing Aus ATC (RADAR)
10:30PM -25.6089 152.7131 174° South 267 307 12,200 1,760 Climbing Aus ATC (RADAR)
10:31PM -25.6464 152.7141 179° South 270 311 13,000 1,600 Climbing Aus ATC (RADAR)
10:31PM -25.6835 152.7163 177° South 270 311 13,800 1,385 Climbing Aus ATC (RADAR)
10:32PM -25.7279 152.7184 177° South 274 315 14,500 743 Climbing Aus ATC (RADAR)
10:33PM -25.8225 152.7205 179° South 303 349 15,100 383 Climbing Aus ATC (RADAR)
10:33PM -25.8584 152.7229 177° South 311 358 15,100  Level Aus ATC (RADAR)
10:34PM -25.9017 152.7255 177° South 312 359 15,100  Level Aus ATC (RADAR)
10:34PM -25.9383 152.7275 177° South 314 361 15,100  Level Aus ATC (RADAR)
10:35PM -26.0094 152.7285 179° South 308 354 15,100  Level Aus ATC (RADAR)
10:36PM -26.0579 152.7300 178° South 300 345 15,100  Level Aus ATC (RADAR)
10:36PM -26.1318 152.7351 176° South 290 334 15,100  Level Aus ATC (RADAR)
10:37PM -26.1517 152.7361 177° South 288 331 15,100  Level Aus ATC (RADAR)
10:38PM -26.2305 152.7397 178° South 280 322 15,100  Level Aus ATC (RADAR)
10:38PM -26.2691 152.7408 179° South 277 319 15,100  Level Aus ATC (RADAR)
10:38PM -26.2884 152.7406 180° South 276 318 15,100  Level Aus ATC (RADAR)
10:39PM -26.3325 152.7422 178° South 272 313 15,100  Level Aus ATC (RADAR)
10:40PM -26.3941 152.7472 176° South 265 305 15,100  Level Aus ATC (RADAR)
10:40PM -26.4376 152.7478 179° South 266 306 15,100  Level Aus ATC (RADAR)
10:41PM -26.4985 152.7494 179° South 259 298 15,100  Level Aus ATC (RADAR)
10:42PM -26.5221 152.7404 199° South 258 297 15,100  Level Aus ATC (RADAR)
10:42PM -26.5639 152.7275 195° South 266 306 15,100 -52 Level Aus ATC (RADAR)
10:44PM -26.6595 152.7008 194° South 264 304 15,000 -400 Descending Aus ATC (RADAR)
10:44PM -26.6900 152.6920 195° South 269 310 14,400 -1,400 Descending Aus ATC (RADAR)
10:45PM -26.7377 152.6978 174° South 301 346 13,600 -1,553 Descending Aus ATC (RADAR)
10:45PM -26.7725 152.7685 119° Southeast 306 352 12,200 -1,685 Descending Aus ATC (RADAR)
10:46PM -26.8201 152.8057 145° Southeast 309 356 11,100 -1,618 Descending Aus ATC (RADAR)
10:47PM -26.8816 152.8411 153° Southeast 294 338 9,800 -1,467 Descending Aus ATC (RADAR)
10:48PM -26.9284 152.8700 151° Southeast 284 327 8,900 -1,371 Descending Aus ATC (RADAR)
10:49PM -27.0026 152.9168 151° Southeast 278 320 7,400 -1,400 Descending Aus ATC (RADAR)
10:49PM -27.0304 152.9338 151° Southeast 271 312 6,800 -1,400 Descending Aus ATC (RADAR)
10:50PM -27.0700 152.9563 153° Southeast 270 311 6,000 -1,059 Descending Aus ATC (RADAR)
10:50PM -27.1313 152.9628 175° South 261 300 5,300 -800 Descending Aus ATC (RADAR)
10:51PM -27.1784 152.9702 172° South 256 295 4,800 -733 Descending Aus ATC (RADAR)
10:52PM -27.2371 152.9763 175° South 253 291 4,200 -696 Descending Aus ATC (RADAR)
10:52PM -27.2610 152.9761 181° South 254 292 4,000 -606 Descending Aus ATC (RADAR)
10:54PM -27.3513 152.9799 178° South 246 283 3,200 -730 Descending Aus ATC (RADAR)
10:54PM -27.3882 152.9872 170° South 229 264 2,600 -960 Descending Aus ATC (RADAR)
10:54PM -27.4024 152.9907 168° South 218 251 2,400 -720 Descending Aus ATC (RADAR)
10:55PM -27.4223 153.0165 131° Southeast 181 208 2,000 -750 Descending Aus ATC (RADAR)
10:56PM -27.4390 153.0519 118° Southeast 162 186 1,400 -706 Descending Aus ATC (RADAR)
10:56PM -27.4469 153.0814 107° East 144 166 1,000 -505 Descending Aus ATC (RADAR)
10:57PM -27.4270 153.1053 47° Northeast 123 142 600 -514 Descending Aus ATC (RADAR)
10:58PM -27.4197 153.1088 24° Northeast 118 136 400 -800 Descending Aus ATC (RADAR)
10:59PM -27.3918 153.1241 26° Northeast 111 128 -400 Descending Aus ATC (RADAR)

Login

Don't have an account? Register now (free) for customized features, flight alerts, and more!